sensor_id;sensor_type;location;lat;lon;timestamp;pressure;altitude;pressure_sealevel;temperature
19196;BMP280;9730;48.926;11.376;2022-07-10T00:02:26;97797.88;;;15.20
19196;BMP280;9730;48.926;11.376;2022-07-10T00:04:52;97796.69;;;15.26
19196;BMP280;9730;48.926;11.376;2022-07-10T00:07:19;97801.84;;;15.24
19196;BMP280;9730;48.926;11.376;2022-07-10T00:09:45;97795.88;;;15.39
19196;BMP280;9730;48.926;11.376;2022-07-10T00:12:13;97798.00;;;15.73
19196;BMP280;9730;48.926;11.376;2022-07-10T00:14:39;97796.31;;;15.86
19196;BMP280;9730;48.926;11.376;2022-07-10T00:17:06;97797.28;;;15.57
19196;BMP280;9730;48.926;11.376;2022-07-10T00:19:32;97802.69;;;15.39
19196;BMP280;9730;48.926;11.376;2022-07-10T00:21:58;97803.47;;;15.11
19196;BMP280;9730;48.926;11.376;2022-07-10T00:24:25;97801.03;;;15.10
19196;BMP280;9730;48.926;11.376;2022-07-10T00:26:51;97795.91;;;14.68
19196;BMP280;9730;48.926;11.376;2022-07-10T00:29:19;97807.56;;;14.28
19196;BMP280;9730;48.926;11.376;2022-07-10T00:31:45;97808.06;;;14.34
19196;BMP280;9730;48.926;11.376;2022-07-10T00:34:12;97807.97;;;14.35
19196;BMP280;9730;48.926;11.376;2022-07-10T00:36:39;97803.66;;;14.51
19196;BMP280;9730;48.926;11.376;2022-07-10T00:39:05;97800.88;;;14.56
19196;BMP280;9730;48.926;11.376;2022-07-10T00:41:32;97794.19;;;14.69
19196;BMP280;9730;48.926;11.376;2022-07-10T00:43:58;97805.03;;;14.28
19196;BMP280;9730;48.926;11.376;2022-07-10T00:46:27;97806.06;;;14.10
19196;BMP280;9730;48.926;11.376;2022-07-10T00:48:53;97806.94;;;14.53
19196;BMP280;9730;48.926;11.376;2022-07-10T00:51:21;97793.88;;;14.59
19196;BMP280;9730;48.926;11.376;2022-07-10T00:53:48;97796.19;;;14.34
19196;BMP280;9730;48.926;11.376;2022-07-10T00:56:15;97793.56;;;14.07
19196;BMP280;9730;48.926;11.376;2022-07-10T00:58:42;97802.63;;;13.49
19196;BMP280;9730;48.926;11.376;2022-07-10T01:01:08;97801.91;;;13.63
19196;BMP280;9730;48.926;11.376;2022-07-10T01:03:36;97800.28;;;13.77
19196;BMP280;9730;48.926;11.376;2022-07-10T01:06:03;97800.75;;;13.68
19196;BMP280;9730;48.926;11.376;2022-07-10T01:08:29;97797.66;;;13.63
19196;BMP280;9730;48.926;11.376;2022-07-10T01:10:56;97793.41;;;13.48
19196;BMP280;9730;48.926;11.376;2022-07-10T01:13:23;97783.34;;;13.47
19196;BMP280;9730;48.926;11.376;2022-07-10T01:15:49;97781.53;;;13.49
19196;BMP280;9730;48.926;11.376;2022-07-10T01:18:17;97786.59;;;13.33
19196;BMP280;9730;48.926;11.376;2022-07-10T01:20:45;97792.72;;;13.45
19196;BMP280;9730;48.926;11.376;2022-07-10T01:23:13;97784.41;;;12.78
19196;BMP280;9730;48.926;11.376;2022-07-10T01:25:39;97782.78;;;12.77
19196;BMP280;9730;48.926;11.376;2022-07-10T01:28:05;97783.38;;;13.15
19196;BMP280;9730;48.926;11.376;2022-07-10T01:30:32;97790.59;;;13.22
19196;BMP280;9730;48.926;11.376;2022-07-10T01:32:58;97787.66;;;13.29
19196;BMP280;9730;48.926;11.376;2022-07-10T01:35:24;97787.31;;;13.35
19196;BMP280;9730;48.926;11.376;2022-07-10T01:37:51;97795.19;;;13.31
19196;BMP280;9730;48.926;11.376;2022-07-10T01:40:18;97791.59;;;13.35
19196;BMP280;9730;48.926;11.376;2022-07-10T01:42:45;97788.38;;;12.84
19196;BMP280;9730;48.926;11.376;2022-07-10T01:45:12;97787.53;;;13.00
19196;BMP280;9730;48.926;11.376;2022-07-10T01:47:38;97791.31;;;13.09
19196;BMP280;9730;48.926;11.376;2022-07-10T01:50:05;97788.50;;;12.81
19196;BMP280;9730;48.926;11.376;2022-07-10T01:52:31;97789.47;;;12.95
19196;BMP280;9730;48.926;11.376;2022-07-10T01:54:58;97789.94;;;12.70
19196;BMP280;9730;48.926;11.376;2022-07-10T01:57:25;97804.25;;;12.54
19196;BMP280;9730;48.926;11.376;2022-07-10T01:59:52;97799.41;;;12.49
19196;BMP280;9730;48.926;11.376;2022-07-10T02:02:18;97801.56;;;12.57
19196;BMP280;9730;48.926;11.376;2022-07-10T02:04:44;97800.44;;;12.45
19196;BMP280;9730;48.926;11.376;2022-07-10T02:07:10;97806.78;;;12.54
19196;BMP280;9730;48.926;11.376;2022-07-10T02:09:37;97805.19;;;12.51
19196;BMP280;9730;48.926;11.376;2022-07-10T02:12:05;97806.69;;;12.21
19196;BMP280;9730;48.926;11.376;2022-07-10T02:14:32;97807.13;;;12.29
19196;BMP280;9730;48.926;11.376;2022-07-10T02:16:59;97808.19;;;12.42
19196;BMP280;9730;48.926;11.376;2022-07-10T02:19:25;97807.66;;;12.53
19196;BMP280;9730;48.926;11.376;2022-07-10T02:21:52;97794.88;;;12.56
19196;BMP280;9730;48.926;11.376;2022-07-10T02:24:18;97791.66;;;12.69
19196;BMP280;9730;48.926;11.376;2022-07-10T02:26:45;97793.88;;;12.58
19196;BMP280;9730;48.926;11.376;2022-07-10T02:29:11;97789.75;;;12.57
19196;BMP280;9730;48.926;11.376;2022-07-10T02:31:39;97802.38;;;12.07
19196;BMP280;9730;48.926;11.376;2022-07-10T02:34:06;97801.19;;;12.14
19196;BMP280;9730;48.926;11.376;2022-07-10T02:36:33;97796.34;;;12.09
19196;BMP280;9730;48.926;11.376;2022-07-10T02:38:59;97805.84;;;12.04
19196;BMP280;9730;48.926;11.376;2022-07-10T02:41:25;97800.88;;;12.03
19196;BMP280;9730;48.926;11.376;2022-07-10T02:43:52;97803.78;;;11.77
19196;BMP280;9730;48.926;11.376;2022-07-10T02:46:18;97807.09;;;11.96
19196;BMP280;9730;48.926;11.376;2022-07-10T02:48:46;97803.38;;;11.86
19196;BMP280;9730;48.926;11.376;2022-07-10T02:51:12;97799.03;;;11.88
19196;BMP280;9730;48.926;11.376;2022-07-10T02:53:39;97794.13;;;11.85
19196;BMP280;9730;48.926;11.376;2022-07-10T02:56:05;97792.91;;;12.10
19196;BMP280;9730;48.926;11.376;2022-07-10T02:58:32;97800.88;;;12.19
19196;BMP280;9730;48.926;11.376;2022-07-10T03:00:58;97808.31;;;12.06
19196;BMP280;9730;48.926;11.376;2022-07-10T03:03:25;97801.63;;;12.05
19196;BMP280;9730;48.926;11.376;2022-07-10T03:05:52;97798.72;;;11.95
19196;BMP280;9730;48.926;11.376;2022-07-10T03:08:19;97793.56;;;11.97
19196;BMP280;9730;48.926;11.376;2022-07-10T03:10:45;97789.09;;;12.02
19196;BMP280;9730;48.926;11.376;2022-07-10T03:13:11;97788.53;;;12.14
19196;BMP280;9730;48.926;11.376;2022-07-10T03:15:38;97793.81;;;12.09
19196;BMP280;9730;48.926;11.376;2022-07-10T03:18:04;97798.53;;;11.81
19196;BMP280;9730;48.926;11.376;2022-07-10T03:20:30;97795.44;;;12.10
19196;BMP280;9730;48.926;11.376;2022-07-10T03:22:58;97797.63;;;12.18
19196;BMP280;9730;48.926;11.376;2022-07-10T03:25:24;97791.59;;;12.20
19196;BMP280;9730;48.926;11.376;2022-07-10T03:27:51;97801.34;;;12.27
19196;BMP280;9730;48.926;11.376;2022-07-10T03:30:17;97802.25;;;12.43
19196;BMP280;9730;48.926;11.376;2022-07-10T03:32:45;97801.63;;;12.55
19196;BMP280;9730;48.926;11.376;2022-07-10T03:35:11;97805.97;;;12.53
19196;BMP280;9730;48.926;11.376;2022-07-10T03:37:37;97798.50;;;12.67
19196;BMP280;9730;48.926;11.376;2022-07-10T03:40:06;97796.00;;;12.50
19196;BMP280;9730;48.926;11.376;2022-07-10T03:42:32;97807.88;;;12.48
19196;BMP280;9730;48.926;11.376;2022-07-10T03:44:58;97809.75;;;12.45
19196;BMP280;9730;48.926;11.376;2022-07-10T03:47:25;97811.25;;;12.66
19196;BMP280;9730;48.926;11.376;2022-07-10T03:49:52;97805.34;;;12.65
19196;BMP280;9730;48.926;11.376;2022-07-10T03:52:18;97802.22;;;12.94
19196;BMP280;9730;48.926;11.376;2022-07-10T03:54:44;97795.44;;;12.77
19196;BMP280;9730;48.926;11.376;2022-07-10T03:57:12;97799.31;;;12.68
19196;BMP280;9730;48.926;11.376;2022-07-10T03:59:56;97793.81;;;12.60
19196;BMP280;9730;48.926;11.376;2022-07-10T04:02:22;97790.44;;;12.93
19196;BMP280;9730;48.926;11.376;2022-07-10T04:04:48;97797.78;;;13.14
19196;BMP280;9730;48.926;11.376;2022-07-10T04:07:15;97797.88;;;13.28
19196;BMP280;9730;48.926;11.376;2022-07-10T04:09:41;97806.78;;;13.35
19196;BMP280;9730;48.926;11.376;2022-07-10T04:12:08;97803.38;;;13.36
19196;BMP280;9730;48.926;11.376;2022-07-10T04:14:35;97796.03;;;13.15
19196;BMP280;9730;48.926;11.376;2022-07-10T04:17:02;97795.97;;;13.16
19196;BMP280;9730;48.926;11.376;2022-07-10T04:19:28;97790.13;;;13.31
19196;BMP280;9730;48.926;11.376;2022-07-10T04:21:55;97786.34;;;13.23
19196;BMP280;9730;48.926;11.376;2022-07-10T04:24:21;97794.94;;;13.35
19196;BMP280;9730;48.926;11.376;2022-07-10T04:26:47;97796.03;;;13.47
19196;BMP280;9730;48.926;11.376;2022-07-10T04:29:14;97794.72;;;13.55
19196;BMP280;9730;48.926;11.376;2022-07-10T04:31:41;97793.00;;;13.56
19196;BMP280;9730;48.926;11.376;2022-07-10T04:34:08;97807.16;;;13.12
19196;BMP280;9730;48.926;11.376;2022-07-10T04:36:34;97800.41;;;13.43
19196;BMP280;9730;48.926;11.376;2022-07-10T04:39:00;97797.50;;;13.81
19196;BMP280;9730;48.926;11.376;2022-07-10T04:41:27;97797.25;;;14.31
19196;BMP280;9730;48.926;11.376;2022-07-10T04:43:53;97790.81;;;14.54
19196;BMP280;9730;48.926;11.376;2022-07-10T04:46:19;97792.88;;;14.19
19196;BMP280;9730;48.926;11.376;2022-07-10T04:48:47;97805.38;;;14.51
19196;BMP280;9730;48.926;11.376;2022-07-10T04:51:13;97802.22;;;14.47
19196;BMP280;9730;48.926;11.376;2022-07-10T04:53:40;97789.38;;;14.64
19196;BMP280;9730;48.926;11.376;2022-07-10T04:56:06;97798.78;;;14.62
19196;BMP280;9730;48.926;11.376;2022-07-10T04:58:33;97811.22;;;14.53
19196;BMP280;9730;48.926;11.376;2022-07-10T05:00:59;97812.59;;;14.58
19196;BMP280;9730;48.926;11.376;2022-07-10T05:03:26;97800.06;;;14.69
19196;BMP280;9730;48.926;11.376;2022-07-10T05:05:55;97807.31;;;14.61
19196;BMP280;9730;48.926;11.376;2022-07-10T05:08:21;97818.19;;;14.63
19196;BMP280;9730;48.926;11.376;2022-07-10T05:10:47;97800.44;;;14.77
19196;BMP280;9730;48.926;11.376;2022-07-10T05:13:14;97806.78;;;14.70
19196;BMP280;9730;48.926;11.376;2022-07-10T05:15:40;97806.59;;;14.73
19196;BMP280;9730;48.926;11.376;2022-07-10T05:18:06;97803.25;;;14.73
19196;BMP280;9730;48.926;11.376;2022-07-10T05:20:33;97805.06;;;14.71
19196;BMP280;9730;48.926;11.376;2022-07-10T05:23:01;97808.91;;;14.78
19196;BMP280;9730;48.926;11.376;2022-07-10T05:25:28;97814.72;;;14.93
19196;BMP280;9730;48.926;11.376;2022-07-10T05:27:55;97818.16;;;15.06
19196;BMP280;9730;48.926;11.376;2022-07-10T05:30:22;97823.44;;;15.17
19196;BMP280;9730;48.926;11.376;2022-07-10T05:32:48;97817.75;;;15.28
19196;BMP280;9730;48.926;11.376;2022-07-10T05:35:14;97801.56;;;15.15
19196;BMP280;9730;48.926;11.376;2022-07-10T05:37:41;97807.19;;;15.47
19196;BMP280;9730;48.926;11.376;2022-07-10T05:40:09;97813.84;;;15.36
19196;BMP280;9730;48.926;11.376;2022-07-10T05:42:36;97811.72;;;15.15
19196;BMP280;9730;48.926;11.376;2022-07-10T05:45:02;97812.13;;;15.23
19196;BMP280;9730;48.926;11.376;2022-07-10T05:47:29;97819.38;;;15.56
19196;BMP280;9730;48.926;11.376;2022-07-10T05:49:55;97813.97;;;16.01
19196;BMP280;9730;48.926;11.376;2022-07-10T05:52:22;97822.47;;;15.88
19196;BMP280;9730;48.926;11.376;2022-07-10T05:54:48;97815.75;;;16.13
19196;BMP280;9730;48.926;11.376;2022-07-10T05:57:17;97821.00;;;16.62
19196;BMP280;9730;48.926;11.376;2022-07-10T05:59:43;97829.72;;;16.20
19196;BMP280;9730;48.926;11.376;2022-07-10T06:02:09;97825.78;;;15.76
19196;BMP280;9730;48.926;11.376;2022-07-10T06:04:36;97828.69;;;16.22
19196;BMP280;9730;48.926;11.376;2022-07-10T06:07:02;97828.09;;;16.19
19196;BMP280;9730;48.926;11.376;2022-07-10T06:09:29;97827.94;;;16.08
19196;BMP280;9730;48.926;11.376;2022-07-10T06:11:55;97815.09;;;16.74
19196;BMP280;9730;48.926;11.376;2022-07-10T06:14:23;97813.69;;;17.45
19196;BMP280;9730;48.926;11.376;2022-07-10T06:16:49;97807.72;;;18.73
19196;BMP280;9730;48.926;11.376;2022-07-10T06:19:15;97806.72;;;18.86
19196;BMP280;9730;48.926;11.376;2022-07-10T06:21:42;97808.41;;;19.53
19196;BMP280;9730;48.926;11.376;2022-07-10T06:24:08;97810.06;;;19.43
19196;BMP280;9730;48.926;11.376;2022-07-10T06:26:35;97814.25;;;19.22
19196;BMP280;9730;48.926;11.376;2022-07-10T06:29:01;97825.13;;;18.57
19196;BMP280;9730;48.926;11.376;2022-07-10T06:31:29;97838.47;;;17.43
19196;BMP280;9730;48.926;11.376;2022-07-10T06:33:55;97832.28;;;17.34
19196;BMP280;9730;48.926;11.376;2022-07-10T06:36:21;97829.66;;;18.07
19196;BMP280;9730;48.926;11.376;2022-07-10T06:38:48;97830.28;;;17.98
19196;BMP280;9730;48.926;11.376;2022-07-10T06:41:14;97819.63;;;18.96
19196;BMP280;9730;48.926;11.376;2022-07-10T06:43:40;97812.09;;;19.71
19196;BMP280;9730;48.926;11.376;2022-07-10T06:46:07;97812.13;;;19.38
19196;BMP280;9730;48.926;11.376;2022-07-10T06:48:34;97818.19;;;19.26
19196;BMP280;9730;48.926;11.376;2022-07-10T06:51:05;97820.91;;;18.90
19196;BMP280;9730;48.926;11.376;2022-07-10T06:53:31;97817.97;;;17.92
19196;BMP280;9730;48.926;11.376;2022-07-10T06:55:58;97825.28;;;18.66
19196;BMP280;9730;48.926;11.376;2022-07-10T06:58:24;97826.38;;;18.05
19196;BMP280;9730;48.926;11.376;2022-07-10T07:00:50;97824.09;;;19.05
19196;BMP280;9730;48.926;11.376;2022-07-10T07:03:17;97819.00;;;19.26
19196;BMP280;9730;48.926;11.376;2022-07-10T07:05:44;97799.72;;;21.21
19196;BMP280;9730;48.926;11.376;2022-07-10T07:08:11;97800.25;;;21.15
19196;BMP280;9730;48.926;11.376;2022-07-10T07:10:38;97799.75;;;21.50
19196;BMP280;9730;48.926;11.376;2022-07-10T07:13:05;97801.38;;;21.01
19196;BMP280;9730;48.926;11.376;2022-07-10T07:15:31;97802.97;;;20.62
19196;BMP280;9730;48.926;11.376;2022-07-10T07:18:00;97811.63;;;19.76
19196;BMP280;9730;48.926;11.376;2022-07-10T07:20:38;97809.56;;;20.24
19196;BMP280;9730;48.926;11.376;2022-07-10T07:23:25;97824.09;;;19.92
19196;BMP280;9730;48.926;11.376;2022-07-10T07:25:51;97816.22;;;20.78
19196;BMP280;9730;48.926;11.376;2022-07-10T07:28:18;97796.91;;;21.53
19196;BMP280;9730;48.926;11.376;2022-07-10T07:30:45;97794.72;;;22.16
19196;BMP280;9730;48.926;11.376;2022-07-10T07:33:11;97821.72;;;20.42
19196;BMP280;9730;48.926;11.376;2022-07-10T07:35:37;97822.13;;;19.63
19196;BMP280;9730;48.926;11.376;2022-07-10T07:38:04;97819.22;;;19.23
19196;BMP280;9730;48.926;11.376;2022-07-10T07:40:32;97831.59;;;18.95
19196;BMP280;9730;48.926;11.376;2022-07-10T07:42:59;97823.84;;;18.97
19196;BMP280;9730;48.926;11.376;2022-07-10T07:45:26;97830.66;;;18.40
19196;BMP280;9730;48.926;11.376;2022-07-10T07:47:53;97823.28;;;19.04
19196;BMP280;9730;48.926;11.376;2022-07-10T07:50:20;97826.22;;;18.42
19196;BMP280;9730;48.926;11.376;2022-07-10T07:52:47;97824.91;;;19.49
19196;BMP280;9730;48.926;11.376;2022-07-10T07:55:14;97822.97;;;20.16
19196;BMP280;9730;48.926;11.376;2022-07-10T07:57:42;97813.28;;;20.82
19196;BMP280;9730;48.926;11.376;2022-07-10T08:00:09;97833.72;;;20.10
19196;BMP280;9730;48.926;11.376;2022-07-10T08:02:39;97823.34;;;20.63
19196;BMP280;9730;48.926;11.376;2022-07-10T08:05:06;97821.81;;;20.72
19196;BMP280;9730;48.926;11.376;2022-07-10T08:07:33;97824.50;;;21.11
19196;BMP280;9730;48.926;11.376;2022-07-10T08:09:59;97813.03;;;22.42
19196;BMP280;9730;48.926;11.376;2022-07-10T08:12:26;97840.94;;;20.68
19196;BMP280;9730;48.926;11.376;2022-07-10T08:14:54;97808.28;;;22.84
19196;BMP280;9730;48.926;11.376;2022-07-10T08:17:20;97815.88;;;21.71
19196;BMP280;9730;48.926;11.376;2022-07-10T08:19:46;97815.34;;;22.54
19196;BMP280;9730;48.926;11.376;2022-07-10T08:22:13;97818.38;;;21.52
19196;BMP280;9730;48.926;11.376;2022-07-10T08:24:39;97792.19;;;25.03
19196;BMP280;9730;48.926;11.376;2022-07-10T08:27:05;97804.72;;;22.76
19196;BMP280;9730;48.926;11.376;2022-07-10T08:29:32;97800.28;;;22.21
19196;BMP280;9730;48.926;11.376;2022-07-10T08:32:00;97805.94;;;22.06
19196;BMP280;9730;48.926;11.376;2022-07-10T08:34:27;97804.66;;;21.72
19196;BMP280;9730;48.926;11.376;2022-07-10T08:36:53;97817.88;;;21.08
19196;BMP280;9730;48.926;11.376;2022-07-10T08:39:20;97800.69;;;22.07
19196;BMP280;9730;48.926;11.376;2022-07-10T08:41:47;97801.53;;;22.27
19196;BMP280;9730;48.926;11.376;2022-07-10T08:44:15;97798.56;;;22.31
19196;BMP280;9730;48.926;11.376;2022-07-10T08:46:42;97779.22;;;24.35
19196;BMP280;9730;48.926;11.376;2022-07-10T08:49:10;97795.66;;;22.91
19196;BMP280;9730;48.926;11.376;2022-07-10T08:51:45;97783.56;;;22.27
19196;BMP280;9730;48.926;11.376;2022-07-10T08:54:13;97779.16;;;22.74
19196;BMP280;9730;48.926;11.376;2022-07-10T08:56:40;97807.22;;;21.13
19196;BMP280;9730;48.926;11.376;2022-07-10T08:59:06;97784.84;;;22.02
19196;BMP280;9730;48.926;11.376;2022-07-10T09:01:33;97785.44;;;22.43
19196;BMP280;9730;48.926;11.376;2022-07-10T09:04:00;97789.16;;;23.05
19196;BMP280;9730;48.926;11.376;2022-07-10T09:06:28;97786.28;;;23.81
19196;BMP280;9730;48.926;11.376;2022-07-10T09:09:01;97744.03;;;27.58
19196;BMP280;9730;48.926;11.376;2022-07-10T09:11:28;97792.88;;;22.37
19196;BMP280;9730;48.926;11.376;2022-07-10T09:13:58;97778.41;;;22.45
19196;BMP280;9730;48.926;11.376;2022-07-10T09:16:25;97775.63;;;23.03
19196;BMP280;9730;48.926;11.376;2022-07-10T09:18:52;97778.44;;;23.46
19196;BMP280;9730;48.926;11.376;2022-07-10T09:21:19;97772.41;;;23.55
19196;BMP280;9730;48.926;11.376;2022-07-10T09:23:47;97772.72;;;23.52
19196;BMP280;9730;48.926;11.376;2022-07-10T09:26:13;97796.34;;;20.59
19196;BMP280;9730;48.926;11.376;2022-07-10T09:28:40;97788.72;;;21.69
19196;BMP280;9730;48.926;11.376;2022-07-10T09:31:06;97791.34;;;21.88
19196;BMP280;9730;48.926;11.376;2022-07-10T09:33:33;97812.44;;;19.99
19196;BMP280;9730;48.926;11.376;2022-07-10T09:36:01;97808.81;;;20.32
19196;BMP280;9730;48.926;11.376;2022-07-10T09:38:33;97803.31;;;21.38
19196;BMP280;9730;48.926;11.376;2022-07-10T09:41:15;97763.78;;;24.00
19196;BMP280;9730;48.926;11.376;2022-07-10T09:43:45;97767.47;;;24.50
19196;BMP280;9730;48.926;11.376;2022-07-10T09:46:12;97774.88;;;24.01
19196;BMP280;9730;48.926;11.376;2022-07-10T09:48:38;97753.84;;;25.90
19196;BMP280;9730;48.926;11.376;2022-07-10T09:51:07;97759.97;;;25.40
19196;BMP280;9730;48.926;11.376;2022-07-10T09:53:34;97764.59;;;26.58
19196;BMP280;9730;48.926;11.376;2022-07-10T09:56:03;97804.50;;;22.60
19196;BMP280;9730;48.926;11.376;2022-07-10T09:58:33;97800.56;;;21.31
19196;BMP280;9730;48.926;11.376;2022-07-10T10:01:00;97791.72;;;21.83
19196;BMP280;9730;48.926;11.376;2022-07-10T10:03:27;97780.72;;;22.48
19196;BMP280;9730;48.926;11.376;2022-07-10T10:05:58;97772.16;;;22.57
19196;BMP280;9730;48.926;11.376;2022-07-10T10:08:27;97781.59;;;22.76
19196;BMP280;9730;48.926;11.376;2022-07-10T10:10:56;97775.88;;;23.73
19196;BMP280;9730;48.926;11.376;2022-07-10T10:13:23;97779.44;;;23.36
19196;BMP280;9730;48.926;11.376;2022-07-10T10:15:51;97793.72;;;21.70
19196;BMP280;9730;48.926;11.376;2022-07-10T10:18:18;97781.88;;;21.88
19196;BMP280;9730;48.926;11.376;2022-07-10T10:20:45;97811.75;;;21.00
19196;BMP280;9730;48.926;11.376;2022-07-10T10:23:12;97790.31;;;21.31
19196;BMP280;9730;48.926;11.376;2022-07-10T10:25:39;97809.19;;;20.28
19196;BMP280;9730;48.926;11.376;2022-07-10T10:28:06;97804.75;;;20.30
19196;BMP280;9730;48.926;11.376;2022-07-10T10:30:35;97799.34;;;22.32
19196;BMP280;9730;48.926;11.376;2022-07-10T10:33:04;97775.28;;;22.33
19196;BMP280;9730;48.926;11.376;2022-07-10T10:35:51;97783.78;;;22.14
19196;BMP280;9730;48.926;11.376;2022-07-10T10:38:17;97794.00;;;21.86
19196;BMP280;9730;48.926;11.376;2022-07-10T10:40:43;97791.72;;;20.02
19196;BMP280;9730;48.926;11.376;2022-07-10T10:43:17;97805.19;;;20.04
19196;BMP280;9730;48.926;11.376;2022-07-10T10:45:44;97812.59;;;19.75
19196;BMP280;9730;48.926;11.376;2022-07-10T10:48:13;97815.38;;;19.73
19196;BMP280;9730;48.926;11.376;2022-07-10T10:50:41;97804.38;;;20.14
19196;BMP280;9730;48.926;11.376;2022-07-10T10:53:14;97794.59;;;20.71
19196;BMP280;9730;48.926;11.376;2022-07-10T10:55:41;97798.28;;;20.46
19196;BMP280;9730;48.926;11.376;2022-07-10T10:58:11;97796.69;;;21.36
19196;BMP280;9730;48.926;11.376;2022-07-10T11:00:40;97780.00;;;22.18
19196;BMP280;9730;48.926;11.376;2022-07-10T11:03:14;97766.72;;;24.40
19196;BMP280;9730;48.926;11.376;2022-07-10T11:05:42;97792.78;;;23.12
19196;BMP280;9730;48.926;11.376;2022-07-10T11:08:09;97793.75;;;21.80
19196;BMP280;9730;48.926;11.376;2022-07-10T11:10:36;97786.13;;;22.36
19196;BMP280;9730;48.926;11.376;2022-07-10T11:13:03;97793.16;;;22.53
19196;BMP280;9730;48.926;11.376;2022-07-10T11:15:30;97786.66;;;23.23
19196;BMP280;9730;48.926;11.376;2022-07-10T11:17:58;97775.47;;;23.95
19196;BMP280;9730;48.926;11.376;2022-07-10T11:20:25;97783.66;;;23.27
19196;BMP280;9730;48.926;11.376;2022-07-10T11:22:58;97792.00;;;21.89
19196;BMP280;9730;48.926;11.376;2022-07-10T11:25:32;97793.53;;;21.23
19196;BMP280;9730;48.926;11.376;2022-07-10T11:28:07;97788.25;;;22.03
19196;BMP280;9730;48.926;11.376;2022-07-10T11:30:44;97777.22;;;22.95
19196;BMP280;9730;48.926;11.376;2022-07-10T11:33:11;97758.66;;;22.46
19196;BMP280;9730;48.926;11.376;2022-07-10T11:35:39;97775.22;;;23.35
19196;BMP280;9730;48.926;11.376;2022-07-10T11:38:06;97772.38;;;23.01
19196;BMP280;9730;48.926;11.376;2022-07-10T11:40:35;97795.31;;;21.32
19196;BMP280;9730;48.926;11.376;2022-07-10T11:43:01;97793.59;;;21.72
19196;BMP280;9730;48.926;11.376;2022-07-10T11:45:31;97792.75;;;21.62
19196;BMP280;9730;48.926;11.376;2022-07-10T11:47:58;97765.91;;;21.94
19196;BMP280;9730;48.926;11.376;2022-07-10T11:50:26;97787.13;;;22.05
19196;BMP280;9730;48.926;11.376;2022-07-10T11:52:54;97804.97;;;21.49
19196;BMP280;9730;48.926;11.376;2022-07-10T11:55:21;97798.88;;;20.90
19196;BMP280;9730;48.926;11.376;2022-07-10T11:57:48;97809.19;;;19.97
19196;BMP280;9730;48.926;11.376;2022-07-10T12:00:24;97800.53;;;20.09
19196;BMP280;9730;48.926;11.376;2022-07-10T12:02:52;97800.66;;;20.07
19196;BMP280;9730;48.926;11.376;2022-07-10T12:05:31;97784.13;;;20.63
19196;BMP280;9730;48.926;11.376;2022-07-10T12:08:00;97790.41;;;20.38
19196;BMP280;9730;48.926;11.376;2022-07-10T12:10:26;97793.63;;;20.20
19196;BMP280;9730;48.926;11.376;2022-07-10T12:12:53;97797.31;;;20.27
19196;BMP280;9730;48.926;11.376;2022-07-10T12:15:32;97804.97;;;19.96
19196;BMP280;9730;48.926;11.376;2022-07-10T12:17:59;97789.41;;;19.99
19196;BMP280;9730;48.926;11.376;2022-07-10T12:20:25;97799.75;;;20.28
19196;BMP280;9730;48.926;11.376;2022-07-10T12:22:52;97811.59;;;19.87
19196;BMP280;9730;48.926;11.376;2022-07-10T12:25:20;97801.91;;;20.44
19196;BMP280;9730;48.926;11.376;2022-07-10T12:27:47;97803.66;;;20.12
19196;BMP280;9730;48.926;11.376;2022-07-10T12:30:14;97791.97;;;20.50
19196;BMP280;9730;48.926;11.376;2022-07-10T12:32:40;97795.72;;;20.78
19196;BMP280;9730;48.926;11.376;2022-07-10T12:35:07;97791.38;;;21.28
19196;BMP280;9730;48.926;11.376;2022-07-10T12:37:46;97787.03;;;21.97
19196;BMP280;9730;48.926;11.376;2022-07-10T12:43:01;97793.88;;;21.09
19196;BMP280;9730;48.926;11.376;2022-07-10T12:45:28;97786.94;;;21.30
19196;BMP280;9730;48.926;11.376;2022-07-10T12:47:55;97775.06;;;21.78
19196;BMP280;9730;48.926;11.376;2022-07-10T12:50:22;97768.63;;;21.92
19196;BMP280;9730;48.926;11.376;2022-07-10T12:52:50;97777.22;;;21.63
19196;BMP280;9730;48.926;11.376;2022-07-10T12:55:34;97783.06;;;20.85
19196;BMP280;9730;48.926;11.376;2022-07-10T12:58:05;97784.69;;;20.86
19196;BMP280;9730;48.926;11.376;2022-07-10T13:00:34;97795.13;;;20.74
19196;BMP280;9730;48.926;11.376;2022-07-10T13:03:01;97784.44;;;20.69
19196;BMP280;9730;48.926;11.376;2022-07-10T13:05:29;97791.19;;;20.50
19196;BMP280;9730;48.926;11.376;2022-07-10T13:08:09;97797.31;;;20.99
19196;BMP280;9730;48.926;11.376;2022-07-10T13:10:37;97797.38;;;20.16
19196;BMP280;9730;48.926;11.376;2022-07-10T13:13:05;97804.97;;;19.96
19196;BMP280;9730;48.926;11.376;2022-07-10T13:15:32;97798.03;;;20.29
19196;BMP280;9730;48.926;11.376;2022-07-10T13:18:05;97802.94;;;20.21
19196;BMP280;9730;48.926;11.376;2022-07-10T13:20:31;97790.81;;;20.23
19196;BMP280;9730;48.926;11.376;2022-07-10T13:22:58;97795.28;;;20.73
19196;BMP280;9730;48.926;11.376;2022-07-10T13:25:24;97794.59;;;20.08
19196;BMP280;9730;48.926;11.376;2022-07-10T13:27:50;97782.28;;;20.54
19196;BMP280;9730;48.926;11.376;2022-07-10T13:30:18;97794.81;;;20.16
19196;BMP280;9730;48.926;11.376;2022-07-10T13:32:45;97775.03;;;20.70
19196;BMP280;9730;48.926;11.376;2022-07-10T13:35:11;97784.03;;;20.84
19196;BMP280;9730;48.926;11.376;2022-07-10T13:37:38;97789.72;;;20.05
19196;BMP280;9730;48.926;11.376;2022-07-10T13:40:05;97789.13;;;20.33
19196;BMP280;9730;48.926;11.376;2022-07-10T13:42:32;97796.53;;;20.47
19196;BMP280;9730;48.926;11.376;2022-07-10T13:44:58;97795.00;;;20.55
19196;BMP280;9730;48.926;11.376;2022-07-10T13:47:26;97776.72;;;21.79
19196;BMP280;9730;48.926;11.376;2022-07-10T13:49:53;97791.00;;;20.82
19196;BMP280;9730;48.926;11.376;2022-07-10T13:52:19;97808.06;;;20.21
19196;BMP280;9730;48.926;11.376;2022-07-10T13:54:46;97799.56;;;20.21
19196;BMP280;9730;48.926;11.376;2022-07-10T13:57:12;97796.28;;;19.76
19196;BMP280;9730;48.926;11.376;2022-07-10T13:59:39;97796.31;;;20.50
19196;BMP280;9730;48.926;11.376;2022-07-10T14:02:06;97795.59;;;20.48
19196;BMP280;9730;48.926;11.376;2022-07-10T14:04:33;97799.66;;;19.99
19196;BMP280;9730;48.926;11.376;2022-07-10T14:07:00;97802.50;;;20.16
19196;BMP280;9730;48.926;11.376;2022-07-10T14:09:26;97793.38;;;20.54
19196;BMP280;9730;48.926;11.376;2022-07-10T14:11:53;97816.44;;;20.54
19196;BMP280;9730;48.926;11.376;2022-07-10T14:14:20;97804.66;;;20.52